Time;durP1;ratioP1;P1;durP2;ratioP2;P2;SDS_P1;SDS_P2;PMS_P1;PMS_P2;Temp;Humidity;BMP_temperature;BMP_pressure;BME280_temperature;BME280_humidity;BME280_pressure;Samples;Min_cycle;Max_cycle;Signal;HPM_P1;HPM_P2
2023/10/19 00:00:35;;;;;;;0.00;0.00;;;12.10;99.90;;;;;;5090990;28;20180;-59
2023/10/19 00:03:06;;;;;;;0.00;0.00;;;12.10;99.90;;;;;;5091389;28;20191;-58
2023/10/19 00:05:32;;;;;;;0.00;0.00;;;12.10;99.90;;;;;;5091547;28;20207;-59
2023/10/19 00:08:14;;;;;;;0.00;0.00;;;12.00;99.90;;;;;;5091400;28;20203;-60
2023/10/19 00:10:47;;;;;;;0.15;0.15;;;12.10;99.90;;;;;;5091587;28;20187;-60
2023/10/19 00:13:13;;;;;;;0.00;0.00;;;12.10;99.90;;;;;;5091453;28;20172;-59
2023/10/19 00:15:40;;;;;;;0.00;0.00;;;12.10;99.90;;;;;;5089944;28;20275;-58
2023/10/19 00:23:13;;;;;;;0.00;0.00;;;12.20;99.90;;;;;;5091049;28;20190;-58
2023/10/19 00:25:44;;;;;;;0.22;0.22;;;12.20;99.90;;;;;;5091101;28;20593;-59
2023/10/19 00:28:14;;;;;;;0.00;0.00;;;12.30;99.90;;;;;;5091299;28;20208;-57
2023/10/19 00:30:42;;;;;;;0.00;0.00;;;12.30;99.90;;;;;;5090928;28;20650;-58
2023/10/19 00:33:16;;;;;;;0.00;0.00;;;12.30;99.90;;;;;;5090950;28;20238;-57
2023/10/19 00:35:56;;;;;;;0.10;0.10;;;12.40;99.90;;;;;;5091122;28;20171;-59
2023/10/19 00:41:11;;;;;;;0.00;0.00;;;12.40;99.90;;;;;;5091009;28;20194;-59
2023/10/19 00:43:43;;;;;;;0.00;0.00;;;12.30;99.90;;;;;;5091025;28;20207;-59
2023/10/19 00:48:56;;;;;;;0.00;0.00;;;12.10;99.90;;;;;;5091016;28;20218;-59
2023/10/19 00:53:56;;;;;;;0.05;0.03;;;12.10;99.90;;;;;;5090828;28;20508;-59
2023/10/19 00:56:24;;;;;;;0.00;0.00;;;12.10;99.90;;;;;;5091196;28;20192;-59
2023/10/19 00:59:00;;;;;;;0.00;0.00;;;12.00;99.90;;;;;;5090750;28;20239;-59
2023/10/19 01:01:29;;;;;;;0.00;0.00;;;12.00;99.90;;;;;;5085346;28;20187;-60
2023/10/19 01:03:58;;;;;;;0.00;0.00;;;12.00;99.90;;;;;;5090667;28;20250;-60
2023/10/19 01:06:25;;;;;;;0.15;0.15;;;11.90;99.90;;;;;;5087560;28;20180;-58
2023/10/19 01:08:52;;;;;;;0.00;0.00;;;11.90;99.90;;;;;;5090936;28;20246;-59
2023/10/19 01:11:20;;;;;;;0.00;0.00;;;12.00;99.90;;;;;;5089427;28;20183;-59
2023/10/19 01:13:47;;;;;;;0.00;0.00;;;12.00;99.90;;;;;;5091104;28;20192;-59
2023/10/19 01:16:23;;;;;;;0.00;0.00;;;12.00;99.90;;;;;;5090839;28;20212;-59
2023/10/19 01:18:56;;;;;;;0.00;0.00;;;12.00;99.90;;;;;;5085789;28;20635;-59
2023/10/19 01:21:27;;;;;;;0.20;0.20;;;12.10;99.90;;;;;;5090819;28;20401;-59
2023/10/19 01:23:53;;;;;;;0.15;0.10;;;12.10;99.90;;;;;;5090865;28;20731;-58
2023/10/19 01:26:26;;;;;;;0.00;0.00;;;12.10;99.90;;;;;;5091203;28;20182;-59
2023/10/19 01:28:53;;;;;;;0.00;0.00;;;12.10;99.90;;;;;;5094856;28;20215;-58
2023/10/19 01:31:30;;;;;;;0.00;0.00;;;12.10;99.90;;;;;;5094017;28;20204;-60
2023/10/19 01:34:01;;;;;;;0.03;0.03;;;12.10;99.90;;;;;;5094640;28;20190;-59
2023/10/19 01:36:27;;;;;;;0.00;0.00;;;12.10;99.90;;;;;;5094473;28;20184;-58
2023/10/19 01:39:10;;;;;;;0.20;0.20;;;12.10;99.90;;;;;;5094599;28;20225;-58
2023/10/19 01:41:36;;;;;;;0.10;0.10;;;12.10;99.90;;;;;;5093616;28;20655;-59
2023/10/19 01:44:04;;;;;;;0.00;0.00;;;12.10;99.90;;;;;;5094192;28;20191;-58
2023/10/19 01:46:33;;;;;;;0.00;0.00;;;12.10;99.90;;;;;;5093971;28;20184;-58
2023/10/19 01:49:00;;;;;;;0.00;0.00;;;12.10;99.90;;;;;;5093945;28;20264;-58
2023/10/19 01:51:28;;;;;;;0.00;0.00;;;12.00;99.90;;;;;;5093605;28;20686;-58
2023/10/19 01:54:00;;;;;;;0.00;0.00;;;12.00;99.90;;;;;;5093923;28;20259;-58
2023/10/19 01:56:26;;;;;;;0.00;0.00;;;12.00;99.90;;;;;;5093774;28;20179;-58
2023/10/19 01:58:51;;;;;;;0.10;0.10;;;12.00;99.90;;;;;;5093182;28;20184;-59
2023/10/19 02:03:59;;;;;;;0.00;0.00;;;12.00;99.90;;;;;;5093538;28;20515;-59
2023/10/19 02:06:27;;;;;;;0.00;0.00;;;12.00;99.90;;;;;;5093513;28;20172;-59
2023/10/19 02:09:17;;;;;;;0.00;0.00;;;12.00;99.90;;;;;;5093713;28;20215;-59
2023/10/19 02:11:47;;;;;;;0.00;0.00;;;12.10;99.90;;;;;;5092974;28;20172;-59
2023/10/19 02:14:17;;;;;;;0.00;0.00;;;12.00;99.90;;;;;;5093815;28;20263;-59
2023/10/19 02:16:46;;;;;;;0.00;0.00;;;12.10;99.90;;;;;;5093569;28;20274;-59
2023/10/19 02:19:12;;;;;;;0.10;0.10;;;12.10;99.90;;;;;;5093714;28;20518;-59
2023/10/19 02:21:41;;;;;;;0.00;0.00;;;12.10;99.90;;;;;;5093159;28;20180;-59
2023/10/19 02:24:16;;;;;;;0.00;0.00;;;12.10;99.90;;;;;;5093432;28;20176;-59
2023/10/19 02:26:44;;;;;;;1.08;1.08;;;12.10;99.90;;;;;;5093052;28;20184;-59
2023/10/19 02:29:10;;;;;;;0.05;0.05;;;12.10;99.90;;;;;;5093626;28;20251;-59
2023/10/19 02:31:37;;;;;;;0.10;0.10;;;12.10;99.90;;;;;;5092490;28;20261;-59
2023/10/19 02:34:04;;;;;;;0.20;0.20;;;12.10;99.90;;;;;;5093264;28;20526;-58
2023/10/19 02:36:31;;;;;;;0.20;0.20;;;12.10;99.90;;;;;;5093083;28;20620;-58
2023/10/19 02:39:07;;;;;;;0.00;0.00;;;12.10;99.90;;;;;;5092341;28;20187;-58
2023/10/19 02:41:49;;;;;;;0.00;0.00;;;12.10;99.90;;;;;;5090920;28;20205;-58
2023/10/19 02:46:50;;;;;;;0.10;0.10;;;12.10;99.90;;;;;;5092987;28;20265;-58
2023/10/19 02:49:21;;;;;;;0.85;0.10;;;12.10;99.90;;;;;;5092961;28;20234;-58
2023/10/19 02:51:47;;;;;;;0.00;0.00;;;12.10;99.90;;;;;;5092624;28;20168;-59
2023/10/19 02:54:20;;;;;;;0.00;0.00;;;12.10;99.90;;;;;;5092879;28;20658;-58
2023/10/19 02:56:52;;;;;;;0.00;0.00;;;12.00;99.90;;;;;;5092862;28;20180;-58
2023/10/19 02:59:22;;;;;;;0.00;0.00;;;12.00;99.90;;;;;;5092760;28;20265;-59
2023/10/19 03:01:54;;;;;;;0.00;0.00;;;12.00;99.90;;;;;;5092348;28;20184;-58
2023/10/19 03:04:20;;;;;;;0.00;0.00;;;12.00;99.90;;;;;;5092420;28;20183;-59
2023/10/19 03:06:45;;;;;;;0.00;0.00;;;12.00;99.90;;;;;;5092743;28;20180;-59
2023/10/19 03:09:15;;;;;;;0.00;0.00;;;12.00;99.90;;;;;;5092339;28;20216;-59
2023/10/19 03:11:42;;;;;;;0.40;0.40;;;12.00;99.90;;;;;;5092282;28;20195;-59
2023/10/19 03:14:08;;;;;;;0.00;0.00;;;12.00;99.90;;;;;;5092374;28;20180;-59
2023/10/19 03:16:38;;;;;;;0.00;0.00;;;12.00;99.90;;;;;;5092513;28;20176;-59
2023/10/19 03:19:04;;;;;;;0.00;0.00;;;12.00;99.90;;;;;;5092099;28;20599;-59
2023/10/19 03:21:34;;;;;;;0.00;0.00;;;12.00;99.90;;;;;;5092382;28;20202;-59
2023/10/19 03:24:12;;;;;;;0.00;0.00;;;12.00;99.90;;;;;;5083991;28;20194;-59
2023/10/19 03:26:40;;;;;;;0.10;0.10;;;12.00;99.90;;;;;;5091964;28;20748;-58
2023/10/19 03:29:12;;;;;;;0.00;0.00;;;12.00;99.90;;;;;;5090923;28;20246;-59
2023/10/19 03:31:45;;;;;;;0.08;0.08;;;12.10;99.90;;;;;;5091308;28;20216;-60
2023/10/19 03:34:16;;;;;;;0.00;0.00;;;12.10;99.90;;;;;;5092090;28;20591;-59
2023/10/19 03:36:42;;;;;;;0.00;0.00;;;12.10;99.90;;;;;;5092170;28;20684;-60
2023/10/19 03:39:17;;;;;;;0.10;0.10;;;12.10;99.90;;;;;;5091521;28;20184;-60
2023/10/19 03:41:44;;;;;;;0.10;0.10;;;12.10;99.90;;;;;;5091845;28;20531;-60
2023/10/19 03:44:19;;;;;;;0.00;0.00;;;12.10;99.90;;;;;;5092191;28;20180;-60
2023/10/19 03:46:55;;;;;;;0.00;0.00;;;12.10;99.90;;;;;;5091943;28;20175;-60
2023/10/19 03:49:22;;;;;;;0.10;0.10;;;12.10;99.90;;;;;;5091197;28;20747;-60
2023/10/19 03:52:33;;;;;;;0.00;0.00;;;12.10;99.90;;;;;;5091719;28;20176;-60
2023/10/19 03:54:38;;;;;;;0.00;0.00;;;12.10;99.90;;;;;;5080470;28;20188;-59
2023/10/19 03:57:06;;;;;;;0.00;0.00;;;12.10;99.90;;;;;;5091079;28;20583;-60
2023/10/19 03:59:34;;;;;;;0.05;0.05;;;12.10;99.90;;;;;;5088161;28;20588;-61
2023/10/19 04:02:00;;;;;;;0.00;0.00;;;12.10;99.90;;;;;;5091809;28;20670;-60
2023/10/19 04:04:29;;;;;;;0.40;0.40;;;12.10;99.90;;;;;;5091217;28;20184;-60
2023/10/19 04:06:58;;;;;;;0.00;0.00;;;12.10;99.90;;;;;;5089874;28;20172;-59
2023/10/19 04:09:28;;;;;;;0.00;0.00;;;12.10;99.90;;;;;;5087534;28;20257;-61
2023/10/19 04:11:56;;;;;;;0.00;0.00;;;12.10;99.90;;;;;;5089707;28;20264;-61
2023/10/19 04:14:21;;;;;;;0.00;0.00;;;12.10;99.90;;;;;;5090661;28;20186;-60
2023/10/19 04:16:48;;;;;;;0.00;0.00;;;12.10;99.90;;;;;;5091602;28;20254;-60
2023/10/19 04:19:15;;;;;;;0.00;0.00;;;12.10;99.90;;;;;;5091572;28;20211;-60
2023/10/19 04:21:46;;;;;;;0.00;0.00;;;12.10;99.90;;;;;;5091268;28;20237;-60
2023/10/19 04:24:12;;;;;;;0.00;0.00;;;12.10;99.90;;;;;;5091285;28;20646;-60
2023/10/19 04:26:38;;;;;;;0.30;0.20;;;12.10;99.90;;;;;;5091600;28;20176;-59
2023/10/19 04:29:10;;;;;;;0.00;0.00;;;12.00;99.90;;;;;;5091331;28;20207;-60
2023/10/19 04:31:48;;;;;;;0.00;0.00;;;12.10;99.90;;;;;;5091406;28;20168;-60
2023/10/19 04:34:14;;;;;;;0.00;0.00;;;12.00;99.90;;;;;;5091566;28;20191;-60
2023/10/19 04:36:40;;;;;;;0.00;0.00;;;12.00;99.90;;;;;;5091486;28;20172;-60
2023/10/19 04:39:11;;;;;;;0.10;0.10;;;12.00;99.90;;;;;;5091413;28;20264;-60
2023/10/19 04:41:36;;;;;;;0.00;0.00;;;12.00;99.90;;;;;;5090194;28;20179;-60
2023/10/19 04:44:02;;;;;;;0.00;0.00;;;12.00;99.90;;;;;;5091408;28;20172;-60
2023/10/19 04:46:29;;;;;;;0.28;0.28;;;12.00;99.90;;;;;;5091314;28;20172;-60
2023/10/19 04:48:54;;;;;;;0.10;0.10;;;11.90;99.90;;;;;;5091459;28;20220;-61
2023/10/19 04:51:20;;;;;;;0.15;0.15;;;11.90;99.90;;;;;;5091224;28;20228;-59
2023/10/19 04:53:46;;;;;;;0.00;0.00;;;11.90;99.90;;;;;;5091311;28;20588;-59
2023/10/19 04:56:12;;;;;;;0.15;0.15;;;11.90;99.90;;;;;;5091480;28;20199;-60
2023/10/19 04:58:38;;;;;;;0.00;0.00;;;11.90;99.90;;;;;;5091156;28;20202;-59
2023/10/19 05:01:05;;;;;;;0.10;0.10;;;11.90;99.90;;;;;;5093034;28;20198;-59
2023/10/19 05:03:31;;;;;;;0.20;0.20;;;11.80;99.90;;;;;;5095200;28;20320;-59
2023/10/19 05:05:56;;;;;;;0.35;0.35;;;11.80;99.90;;;;;;5094995;28;20245;-59
2023/10/19 05:08:27;;;;;;;0.00;0.00;;;11.80;99.90;;;;;;5095177;28;20859;-59
2023/10/19 05:10:54;;;;;;;0.52;0.52;;;11.80;99.90;;;;;;5095004;28;20172;-58
2023/10/19 05:13:21;;;;;;;0.10;0.10;;;11.80;99.90;;;;;;5095001;28;20254;-59
2023/10/19 05:15:47;;;;;;;0.00;0.00;;;11.70;99.90;;;;;;5095042;28;20288;-59
2023/10/19 05:18:12;;;;;;;0.00;0.00;;;11.70;99.90;;;;;;5095139;28;20794;-59
2023/10/19 05:20:40;;;;;;;0.00;0.00;;;11.70;99.90;;;;;;5094863;28;20176;-59
2023/10/19 05:23:08;;;;;;;0.00;0.00;;;11.60;99.90;;;;;;5095026;28;20188;-60
2023/10/19 05:25:34;;;;;;;0.00;0.00;;;11.60;99.90;;;;;;5094943;28;20168;-60
2023/10/19 05:28:00;;;;;;;0.00;0.00;;;11.50;99.90;;;;;;5094803;28;20207;-60
2023/10/19 05:30:26;;;;;;;0.00;0.00;;;11.50;99.90;;;;;;5094747;28;20180;-59
2023/10/19 05:32:51;;;;;;;0.00;0.00;;;11.50;99.90;;;;;;5094764;28;20583;-60
2023/10/19 05:35:22;;;;;;;0.00;0.00;;;11.50;99.90;;;;;;5094610;28;20545;-60
2023/10/19 05:37:49;;;;;;;0.03;0.03;;;11.40;99.90;;;;;;5094807;28;20187;-60
2023/10/19 05:40:15;;;;;;;0.15;0.15;;;11.40;99.90;;;;;;5094687;28;20259;-60
2023/10/19 05:42:41;;;;;;;0.00;0.00;;;11.40;99.90;;;;;;5094819;28;20168;-61
2023/10/19 05:45:07;;;;;;;0.00;0.00;;;11.30;99.90;;;;;;5094680;28;20230;-59
2023/10/19 05:47:32;;;;;;;0.10;0.10;;;11.30;99.90;;;;;;5094475;28;20172;-59
2023/10/19 05:49:58;;;;;;;0.03;0.03;;;11.30;99.90;;;;;;5093330;28;20184;-59
2023/10/19 05:52:23;;;;;;;0.03;0.03;;;11.30;99.90;;;;;;5094596;28;20264;-60
2023/10/19 05:54:53;;;;;;;0.00;0.00;;;11.20;99.90;;;;;;5094436;28;20202;-58
2023/10/19 05:57:19;;;;;;;0.08;0.08;;;11.20;99.90;;;;;;5094355;28;20172;-59
2023/10/19 05:59:44;;;;;;;0.00;0.00;;;11.20;99.90;;;;;;5093514;28;20203;-60
2023/10/19 06:02:10;;;;;;;0.00;0.00;;;11.20;99.90;;;;;;5095301;28;20263;-61
2023/10/19 06:04:35;;;;;;;0.13;0.13;;;11.20;99.90;;;;;;5094871;28;20192;-59
2023/10/19 06:07:02;;;;;;;0.00;0.00;;;11.20;99.90;;;;;;5094919;28;20215;-60
2023/10/19 06:09:29;;;;;;;0.00;0.00;;;11.20;99.90;;;;;;5094471;28;20211;-60
2023/10/19 06:11:55;;;;;;;0.20;0.20;;;11.20;99.90;;;;;;5093562;28;20682;-59
2023/10/19 06:14:21;;;;;;;0.00;0.00;;;11.20;99.90;;;;;;5094264;28;20195;-60
2023/10/19 06:16:46;;;;;;;0.00;0.00;;;11.20;99.90;;;;;;5094140;28;20172;-60
2023/10/19 06:19:12;;;;;;;0.00;0.00;;;11.30;99.90;;;;;;5094241;28;20172;-59
2023/10/19 06:21:37;;;;;;;0.00;0.00;;;11.30;99.90;;;;;;5094026;28;20215;-60
2023/10/19 06:24:03;;;;;;;0.00;0.00;;;11.30;99.90;;;;;;5093974;28;20178;-60
2023/10/19 06:26:29;;;;;;;0.00;0.00;;;11.30;99.90;;;;;;5093846;28;20588;-60
2023/10/19 06:29:02;;;;;;;0.20;0.20;;;11.30;99.90;;;;;;5093788;28;20223;-60
2023/10/19 06:31:28;;;;;;;0.00;0.00;;;11.30;99.90;;;;;;5093538;28;20168;-60
2023/10/19 06:33:53;;;;;;;0.00;0.00;;;11.30;99.90;;;;;;5092555;28;20624;-59
2023/10/19 06:36:19;;;;;;;0.00;0.00;;;11.40;99.90;;;;;;5093573;28;20176;-60
2023/10/19 06:38:45;;;;;;;0.00;0.00;;;11.40;99.90;;;;;;5093734;28;20636;-60
2023/10/19 06:41:14;;;;;;;0.30;0.30;;;11.50;99.90;;;;;;5093624;28;20183;-60
2023/10/19 06:43:40;;;;;;;0.10;0.10;;;11.60;99.90;;;;;;5093449;28;20211;-60
2023/10/19 06:46:06;;;;;;;0.00;0.00;;;11.70;99.90;;;;;;5093563;28;20520;-59
2023/10/19 06:48:32;;;;;;;0.00;0.00;;;11.80;99.90;;;;;;5093264;28;20303;-59
2023/10/19 06:50:58;;;;;;;0.00;0.00;;;11.90;99.90;;;;;;5093316;28;20238;-59
2023/10/19 06:53:23;;;;;;;0.00;0.00;;;11.90;99.90;;;;;;5093371;28;20180;-60
2023/10/19 06:55:49;;;;;;;0.00;0.00;;;12.10;99.90;;;;;;5093214;28;20631;-59
2023/10/19 06:58:15;;;;;;;0.00;0.00;;;12.10;99.90;;;;;;5093249;28;20184;-60
2023/10/19 07:00:43;;;;;;;0.00;0.00;;;12.10;99.90;;;;;;5093141;28;20559;-60
2023/10/19 07:03:09;;;;;;;0.00;0.00;;;12.10;99.90;;;;;;5092157;28;20280;-61
2023/10/19 07:05:35;;;;;;;0.00;0.00;;;12.20;99.90;;;;;;5093026;28;20644;-60
2023/10/19 07:08:01;;;;;;;0.00;0.00;;;12.20;99.90;;;;;;5093097;28;20296;-59
2023/10/19 07:10:28;;;;;;;0.00;0.00;;;12.30;99.90;;;;;;5091742;28;20179;-58
2023/10/19 07:12:55;;;;;;;0.00;0.00;;;12.30;99.90;;;;;;5093140;28;20172;-59
2023/10/19 07:15:25;;;;;;;0.00;0.00;;;12.30;99.90;;;;;;5092921;28;20175;-59
2023/10/19 07:17:54;;;;;;;0.20;0.20;;;12.30;99.90;;;;;;5093066;28;20199;-59
2023/10/19 07:20:31;;;;;;;0.00;0.00;;;12.40;99.90;;;;;;5092789;28;20180;-60
2023/10/19 07:23:21;;;;;;;0.00;0.00;;;12.40;99.90;;;;;;5092772;28;20172;-60
2023/10/19 07:25:52;;;;;;;0.00;0.00;;;12.40;99.90;;;;;;5092126;28;20195;-59
2023/10/19 07:28:19;;;;;;;0.00;0.00;;;12.50;99.90;;;;;;5091477;28;20218;-61
2023/10/19 07:30:46;;;;;;;0.00;0.00;;;12.50;99.90;;;;;;5092576;28;20201;-58
2023/10/19 07:33:18;;;;;;;0.10;0.10;;;12.50;99.90;;;;;;5092535;28;20308;-60
2023/10/19 07:35:46;;;;;;;0.38;0.38;;;12.60;99.90;;;;;;5092607;28;20176;-60
2023/10/19 07:38:13;;;;;;;0.00;0.00;;;12.60;99.90;;;;;;5092498;28;20161;-59
2023/10/19 07:40:39;;;;;;;0.00;0.00;;;12.70;99.90;;;;;;5092198;28;20187;-59
2023/10/19 07:43:05;;;;;;;0.00;0.00;;;12.70;99.90;;;;;;5092462;28;20179;-59
2023/10/19 07:45:31;;;;;;;0.00;0.00;;;12.70;99.90;;;;;;5092381;28;20181;-59
2023/10/19 07:47:58;;;;;;;0.28;0.28;;;12.70;99.90;;;;;;5092242;28;20199;-59
2023/10/19 07:50:23;;;;;;;0.00;0.00;;;12.80;99.90;;;;;;5092208;28;20180;-60
2023/10/19 07:52:53;;;;;;;0.00;0.00;;;12.80;99.90;;;;;;5092264;28;20175;-59
2023/10/19 07:55:22;;;;;;;0.00;0.00;;;12.90;99.90;;;;;;5092069;28;20247;-60
2023/10/19 07:57:50;;;;;;;0.00;0.00;;;12.90;99.90;;;;;;5092306;28;20598;-59
2023/10/19 08:00:17;;;;;;;0.03;0.03;;;13.00;99.90;;;;;;5092121;28;20172;-60
2023/10/19 08:02:46;;;;;;;0.03;0.03;;;13.10;99.90;;;;;;5092087;28;20184;-60
2023/10/19 08:05:12;;;;;;;0.10;0.10;;;13.10;99.90;;;;;;5092064;28;20176;-60
2023/10/19 08:07:47;;;;;;;0.03;0.03;;;13.20;99.90;;;;;;5091689;28;20275;-60
2023/10/19 08:10:15;;;;;;;0.20;0.20;;;13.40;99.90;;;;;;5092056;28;20646;-59
2023/10/19 08:12:42;;;;;;;0.00;0.00;;;13.50;99.90;;;;;;5091925;28;20237;-60
2023/10/19 08:15:15;;;;;;;0.00;0.00;;;13.70;99.90;;;;;;5091982;28;20183;-60
2023/10/19 08:17:43;;;;;;;0.00;0.00;;;13.90;99.90;;;;;;5091803;28;20647;-60
2023/10/19 08:20:15;;;;;;;0.00;0.00;;;14.10;99.90;;;;;;5091820;28;20179;-59
2023/10/19 08:22:42;;;;;;;0.00;0.00;;;14.40;99.90;;;;;;5091773;28;20643;-59
2023/10/19 08:25:11;;;;;;;0.00;0.00;;;14.60;99.90;;;;;;5091856;28;20310;-59
2023/10/19 08:27:44;;;;;;;0.08;0.08;;;14.70;99.90;;;;;;5091559;28;20175;-59
2023/10/19 08:30:10;;;;;;;0.00;0.00;;;14.80;99.90;;;;;;5091882;28;20176;-60
2023/10/19 08:32:36;;;;;;;0.00;0.00;;;15.00;99.90;;;;;;5091332;28;20219;-59
2023/10/19 08:35:02;;;;;;;0.03;0.03;;;15.00;99.90;;;;;;5091311;28;20169;-59
2023/10/19 08:37:28;;;;;;;0.00;0.00;;;15.10;99.90;;;;;;5091613;28;20183;-60
2023/10/19 08:39:54;;;;;;;0.00;0.00;;;15.20;99.90;;;;;;5091427;28;20651;-60
2023/10/19 08:42:20;;;;;;;0.00;0.00;;;15.40;99.90;;;;;;5091375;28;20164;-60
2023/10/19 08:44:46;;;;;;;0.10;0.10;;;15.50;99.90;;;;;;5091457;28;20647;-60
2023/10/19 08:47:12;;;;;;;0.00;0.00;;;15.70;99.90;;;;;;5091606;28;20195;-60
2023/10/19 08:49:37;;;;;;;0.10;0.10;;;15.90;99.90;;;;;;5091277;28;20265;-60
2023/10/19 08:52:05;;;;;;;0.00;0.00;;;16.10;99.90;;;;;;5091583;28;20178;-60
2023/10/19 08:54:31;;;;;;;0.00;0.00;;;16.30;99.90;;;;;;5090251;28;20682;-60
2023/10/19 08:56:59;;;;;;;0.00;0.00;;;16.50;99.90;;;;;;5091132;28;20632;-60
2023/10/19 08:59:25;;;;;;;0.00;0.00;;;16.70;99.90;;;;;;5091408;28;20191;-60
2023/10/19 09:01:50;;;;;;;0.00;0.00;;;17.00;99.90;;;;;;5091518;28;20168;-60
2023/10/19 09:04:16;;;;;;;0.00;0.00;;;17.40;99.90;;;;;;5091176;28;20176;-60
2023/10/19 09:06:42;;;;;;;0.00;0.00;;;17.60;99.90;;;;;;5091254;28;20229;-60
2023/10/19 09:09:09;;;;;;;0.00;0.00;;;17.80;99.90;;;;;;5091332;28;20660;-60
2023/10/19 09:11:35;;;;;;;0.00;0.00;;;17.90;99.90;;;;;;5091370;28;20267;-61
2023/10/19 09:14:03;;;;;;;0.00;0.00;;;18.00;99.90;;;;;;5091424;28;20274;-60
2023/10/19 09:16:30;;;;;;;0.00;0.00;;;18.10;99.90;;;;;;5091310;28;20176;-60
2023/10/19 09:18:57;;;;;;;0.00;0.00;;;18.30;99.90;;;;;;5091333;28;20180;-61
2023/10/19 09:21:26;;;;;;;0.00;0.00;;;18.50;99.90;;;;;;5091328;28;20647;-60
2023/10/19 09:23:52;;;;;;;0.00;0.00;;;18.80;99.90;;;;;;5091378;28;20248;-60
2023/10/19 09:26:18;;;;;;;0.00;0.00;;;19.00;99.90;;;;;;5090007;28;20670;-61
2023/10/19 09:28:53;;;;;;;0.00;0.00;;;19.10;99.90;;;;;;5089899;28;20224;-60
2023/10/19 09:31:20;;;;;;;0.00;0.00;;;19.30;99.90;;;;;;5091036;28;20177;-62
2023/10/19 09:33:47;;;;;;;0.00;0.00;;;19.40;99.90;;;;;;5091290;28;20184;-60
2023/10/19 09:36:13;;;;;;;0.00;0.00;;;19.50;99.90;;;;;;5091195;28;20828;-60
2023/10/19 09:38:52;;;;;;;0.00;0.00;;;19.50;99.90;;;;;;5090997;28;20660;-60
2023/10/19 09:41:20;;;;;;;0.00;0.00;;;19.70;99.90;;;;;;5091055;28;20199;-61
2023/10/19 09:43:50;;;;;;;0.00;0.00;;;19.80;99.90;;;;;;5091185;28;20182;-60
2023/10/19 09:46:25;;;;;;;0.28;0.28;;;19.90;99.90;;;;;;5091054;28;20188;-60
2023/10/19 09:48:51;;;;;;;0.00;0.00;;;20.00;99.90;;;;;;5093955;28;20222;-60
2023/10/19 09:51:19;;;;;;;0.00;0.00;;;20.10;99.90;;;;;;5094643;28;20172;-61
2023/10/19 09:53:49;;;;;;;0.00;0.00;;;20.20;99.90;;;;;;5094707;28;20187;-61
2023/10/19 09:56:27;;;;;;;0.00;0.00;;;20.20;99.90;;;;;;5094652;28;20199;-60
2023/10/19 09:58:57;;;;;;;0.00;0.00;;;20.30;99.90;;;;;;5094766;28;20191;-60
2023/10/19 10:01:23;;;;;;;0.00;0.00;;;20.50;99.90;;;;;;5094544;28;20172;-60
2023/10/19 10:03:51;;;;;;;0.00;0.00;;;20.60;99.90;;;;;;5094447;28;20176;-61
2023/10/19 10:06:39;;;;;;;0.00;0.00;;;20.80;99.90;;;;;;5094255;28;20251;-60
2023/10/19 10:09:11;;;;;;;0.00;0.00;;;20.90;99.90;;;;;;5094353;28;20212;-60
2023/10/19 10:11:37;;;;;;;0.00;0.00;;;20.90;99.90;;;;;;5094268;28;20171;-60
2023/10/19 10:14:24;;;;;;;0.00;0.00;;;21.00;99.90;;;;;;5093243;28;20666;-60
2023/10/19 10:17:02;;;;;;;0.00;0.00;;;20.90;99.90;;;;;;5094325;28;20176;-61
2023/10/19 10:19:28;;;;;;;0.00;0.00;;;20.80;99.90;;;;;;5094214;28;20188;-61
2023/10/19 10:22:11;;;;;;;0.00;0.00;;;20.70;99.90;;;;;;5094364;28;20536;-61
2023/10/19 10:24:43;;;;;;;0.00;0.00;;;20.70;99.90;;;;;;5093888;28;20680;-60
2023/10/19 10:27:09;;;;;;;0.00;0.00;;;20.70;99.90;;;;;;5094248;28;20262;-60
2023/10/19 10:29:35;;;;;;;0.00;0.00;;;20.60;99.90;;;;;;5093851;28;20264;-60
2023/10/19 10:32:01;;;;;;;0.00;0.00;;;20.60;99.90;;;;;;5093818;28;20235;-60
2023/10/19 10:34:33;;;;;;;0.00;0.00;;;20.60;99.90;;;;;;5093889;28;20639;-60
2023/10/19 10:37:03;;;;;;;0.00;0.00;;;20.60;99.90;;;;;;5093772;28;20263;-61
2023/10/19 10:39:34;;;;;;;0.00;0.00;;;20.50;99.90;;;;;;5093595;28;20200;-61
2023/10/19 10:42:02;;;;;;;0.00;0.00;;;20.50;99.90;;;;;;5092396;28;20176;-60
2023/10/19 10:44:52;;;;;;;0.00;0.00;;;20.50;99.90;;;;;;5093621;28;20180;-61
2023/10/19 10:47:22;;;;;;;0.00;0.00;;;20.30;99.90;;;;;;5093601;28;20636;-59
2023/10/19 10:49:58;;;;;;;0.00;0.00;;;20.20;99.90;;;;;;5093621;28;20273;-61
2023/10/19 10:52:25;;;;;;;0.00;0.00;;;20.00;99.90;;;;;;5093584;28;20172;-59
2023/10/19 10:54:51;;;;;;;0.00;0.00;;;19.90;99.90;;;;;;5093574;28;20266;-60
2023/10/19 10:57:19;;;;;;;0.00;0.00;;;19.70;99.90;;;;;;5093277;28;20180;-59
2023/10/19 10:59:45;;;;;;;0.00;0.00;;;19.70;99.90;;;;;;5093390;28;20203;-61
2023/10/19 11:02:18;;;;;;;0.00;0.00;;;19.50;99.90;;;;;;5092050;28;20220;-60
2023/10/19 11:04:45;;;;;;;0.00;0.00;;;19.40;99.90;;;;;;5093240;28;20184;-60
2023/10/19 11:07:18;;;;;;;0.00;0.00;;;19.20;99.90;;;;;;5093226;28;20204;-60
2023/10/19 11:09:45;;;;;;;0.00;0.00;;;19.10;99.90;;;;;;5093310;28;20527;-60
2023/10/19 11:12:12;;;;;;;0.00;0.00;;;19.00;99.90;;;;;;5093274;28;20670;-60
2023/10/19 11:14:51;;;;;;;0.10;0.10;;;18.90;99.90;;;;;;5092969;28;20183;-60
2023/10/19 11:17:16;;;;;;;0.45;0.45;;;18.80;99.90;;;;;;5093085;28;20172;-60
2023/10/19 11:19:42;;;;;;;0.00;0.00;;;18.80;99.90;;;;;;5092930;28;20184;-60
2023/10/19 11:22:10;;;;;;;0.00;0.00;;;18.80;99.90;;;;;;5093053;28;20647;-59
2023/10/19 11:24:39;;;;;;;0.00;0.00;;;18.70;99.90;;;;;;5092823;28;20520;-60
2023/10/19 11:27:07;;;;;;;0.00;0.00;;;18.70;99.90;;;;;;5092965;28;20257;-60
2023/10/19 11:29:33;;;;;;;0.00;0.00;;;18.70;99.90;;;;;;5092733;28;20214;-60
2023/10/19 11:32:02;;;;;;;0.00;0.00;;;18.60;99.90;;;;;;5092530;28;20207;-60
2023/10/19 11:34:29;;;;;;;0.00;0.00;;;18.60;99.90;;;;;;5092752;28;20229;-60
2023/10/19 11:36:56;;;;;;;0.00;0.00;;;18.40;99.90;;;;;;5092735;28;20168;-59
2023/10/19 11:39:25;;;;;;;0.00;0.00;;;18.30;99.90;;;;;;5092440;28;20621;-59
2023/10/19 11:41:52;;;;;;;0.00;0.00;;;18.20;99.90;;;;;;5092644;28;20191;-59
2023/10/19 11:44:19;;;;;;;0.00;0.00;;;18.00;99.90;;;;;;5092402;28;20160;-60
2023/10/19 11:46:45;;;;;;;0.00;0.00;;;18.00;99.90;;;;;;5092628;28;20184;-59
2023/10/19 11:49:11;;;;;;;0.00;0.00;;;17.90;99.90;;;;;;5092319;28;20282;-59
2023/10/19 11:51:37;;;;;;;0.00;0.00;;;17.90;99.90;;;;;;5090925;28;20624;-58
2023/10/19 11:54:06;;;;;;;0.00;0.00;;;17.90;99.90;;;;;;5092401;28;20201;-59
2023/10/19 11:56:32;;;;;;;0.10;0.10;;;17.90;99.90;;;;;;5092163;28;20187;-59
2023/10/19 11:58:57;;;;;;;0.00;0.00;;;17.80;99.90;;;;;;5092146;28;20533;-59
2023/10/19 12:01:24;;;;;;;0.00;0.00;;;17.80;99.90;;;;;;5092092;28;20184;-59
2023/10/19 12:03:51;;;;;;;0.00;0.00;;;17.80;99.90;;;;;;5092190;28;20191;-59
2023/10/19 12:06:19;;;;;;;0.00;0.00;;;17.70;99.90;;;;;;5091871;28;20180;-59
2023/10/19 12:08:45;;;;;;;0.10;0.10;;;17.80;99.90;;;;;;5092052;28;20247;-59
2023/10/19 12:11:18;;;;;;;0.00;0.00;;;17.70;99.90;;;;;;5091524;28;20199;-59
2023/10/19 12:13:44;;;;;;;0.00;0.00;;;17.60;99.90;;;;;;5091968;28;20514;-59
2023/10/19 12:16:12;;;;;;;0.00;0.00;;;17.60;99.90;;;;;;5091941;28;20183;-59
2023/10/19 12:18:39;;;;;;;0.00;0.00;;;17.50;99.90;;;;;;5091624;28;20643;-59
2023/10/19 12:21:07;;;;;;;0.20;0.20;;;17.40;99.90;;;;;;5091969;28;20539;-59
2023/10/19 12:23:34;;;;;;;0.00;0.00;;;17.30;99.90;;;;;;5090553;28;20180;-59
2023/10/19 12:26:10;;;;;;;0.08;0.08;;;17.30;99.90;;;;;;5091689;28;20620;-59
2023/10/19 12:28:38;;;;;;;0.00;0.00;;;17.20;99.90;;;;;;5091553;28;20234;-59
2023/10/19 12:31:05;;;;;;;0.00;0.00;;;17.20;99.90;;;;;;5091666;28;20632;-59
2023/10/19 12:33:30;;;;;;;0.00;0.00;;;17.10;99.90;;;;;;5091467;28;20228;-59
2023/10/19 12:35:59;;;;;;;0.00;0.00;;;17.00;99.90;;;;;;5091565;28;20651;-59
2023/10/19 12:38:25;;;;;;;0.00;0.00;;;17.00;99.90;;;;;;5091645;28;20516;-59
2023/10/19 12:40:51;;;;;;;0.00;0.00;;;17.00;99.90;;;;;;5091570;28;20190;-59
2023/10/19 12:43:18;;;;;;;0.00;0.00;;;17.00;99.90;;;;;;5091519;28;20775;-59
2023/10/19 12:45:50;;;;;;;0.00;0.00;;;17.00;99.90;;;;;;5091540;28;20616;-59
2023/10/19 12:48:17;;;;;;;0.00;0.00;;;16.90;99.90;;;;;;5090840;28;20239;-60
2023/10/19 12:50:43;;;;;;;0.00;0.00;;;17.00;99.90;;;;;;5091331;28;20178;-60
2023/10/19 12:53:09;;;;;;;0.43;0.22;;;17.00;99.90;;;;;;5091196;28;20526;-59
2023/10/19 12:55:37;;;;;;;0.00;0.00;;;17.10;99.90;;;;;;5090594;28;20179;-59
2023/10/19 12:58:07;;;;;;;0.00;0.00;;;17.10;99.90;;;;;;5091440;28;20234;-59
2023/10/19 13:00:40;;;;;;;0.00;0.00;;;17.20;99.90;;;;;;5091254;28;20642;-60
2023/10/19 13:03:07;;;;;;;0.00;0.00;;;17.20;99.90;;;;;;5091007;28;20238;-60
2023/10/19 13:05:34;;;;;;;0.00;0.00;;;17.30;99.90;;;;;;5091307;28;20681;-60
2023/10/19 13:08:00;;;;;;;0.00;0.00;;;17.30;99.90;;;;;;5091365;28;20207;-60
2023/10/19 13:10:33;;;;;;;0.10;0.10;;;17.40;99.90;;;;;;5091055;28;20539;-60
2023/10/19 13:13:04;;;;;;;0.00;0.00;;;17.50;99.90;;;;;;5091337;28;20321;-60